Time;durP1;ratioP1;P1;durP2;ratioP2;P2;SDS_P1;SDS_P2;PMS_P1;PMS_P2;Temp;Humidity;BMP_temperature;BMP_pressure;BME280_temperature;BME280_humidity;BME280_pressure;Samples;Min_cycle;Max_cycle;Signal;HPM_P1;HPM_P2
2024/01/15 00:00:39;;;;;;;19.93;13.73;;;;;;;;;;5016982;28;20205;-56
2024/01/15 00:03:05;;;;;;;18.90;12.83;;;;;;;;;;5016481;28;20475;-52
2024/01/15 00:05:31;;;;;;;20.63;12.80;;;;;;;;;;5021179;28;20408;-50
2024/01/15 00:07:57;;;;;;;20.30;13.07;;;;;;;;;;5021000;28;20549;-50
2024/01/15 00:10:24;;;;;;;22.00;13.23;;;;;;;;;;5015993;28;20710;-51
2024/01/15 00:12:50;;;;;;;20.37;12.47;;;;;;;;;;5024792;28;20228;-51
2024/01/15 00:15:16;;;;;;;18.30;12.47;;;;;;;;;;5026393;28;20648;-50
2024/01/15 00:17:42;;;;;;;18.13;12.40;;;;;;;;;;5020329;28;20247;-51
2024/01/15 00:20:08;;;;;;;19.63;13.10;;;;;;;;;;5011853;28;20174;-52
2024/01/15 00:22:35;;;;;;;20.43;12.93;;;;;;;;;;5011129;28;20178;-51
2024/01/15 00:25:01;;;;;;;17.40;11.60;;;;;;;;;;5024005;28;20652;-51
2024/01/15 00:27:27;;;;;;;17.87;12.10;;;;;;;;;;5021667;28;20952;-51
2024/01/15 00:29:54;;;;;;;20.13;12.93;;;;;;;;;;5012278;28;20437;-51
2024/01/15 00:32:20;;;;;;;20.20;13.23;;;;;;;;;;5019418;28;20210;-51
2024/01/15 00:34:46;;;;;;;20.27;12.47;;;;;;;;;;5020096;28;20175;-50
2024/01/15 00:37:12;;;;;;;16.20;11.57;;;;;;;;;;5020496;28;20455;-53
2024/01/15 00:39:38;;;;;;;20.50;12.60;;;;;;;;;;5018297;28;20513;-50
2024/01/15 00:42:04;;;;;;;15.33;11.70;;;;;;;;;;5021252;28;20556;-51
2024/01/15 00:44:30;;;;;;;19.87;12.27;;;;;;;;;;5013634;28;20309;-52
2024/01/15 00:46:56;;;;;;;16.53;12.17;;;;;;;;;;5016039;28;20260;-50
2024/01/15 00:49:22;;;;;;;15.70;11.73;;;;;;;;;;5020417;28;20868;-51
2024/01/15 00:51:48;;;;;;;15.60;11.73;;;;;;;;;;5021391;28;20213;-51
2024/01/15 00:54:14;;;;;;;18.83;12.17;;;;;;;;;;5014261;28;20178;-51
2024/01/15 00:56:40;;;;;;;14.73;11.00;;;;;;;;;;5014977;28;20642;-52
2024/01/15 00:59:07;;;;;;;15.63;10.90;;;;;;;;;;5013196;28;20487;-50
2024/01/15 01:01:33;;;;;;;15.90;11.27;;;;;;;;;;5016713;28;20185;-51
2024/01/15 01:03:59;;;;;;;14.43;9.90;;;;;;;;;;5014728;28;20925;-51
2024/01/15 01:06:25;;;;;;;15.53;11.10;;;;;;;;;;5011664;28;20179;-52
2024/01/15 01:08:51;;;;;;;17.90;11.87;;;;;;;;;;5019387;28;20274;-52
2024/01/15 01:11:18;;;;;;;14.37;10.67;;;;;;;;;;5009551;28;20174;-51
2024/01/15 01:13:44;;;;;;;17.07;11.53;;;;;;;;;;5013784;28;20436;-54
2024/01/15 01:16:10;;;;;;;16.77;11.77;;;;;;;;;;5022981;28;20626;-54
2024/01/15 01:18:36;;;;;;;16.27;11.20;;;;;;;;;;5021212;28;20708;-54
2024/01/15 01:21:02;;;;;;;15.57;11.00;;;;;;;;;;5017626;28;20398;-54
2024/01/15 01:23:28;;;;;;;17.97;12.23;;;;;;;;;;5023772;28;20258;-54
2024/01/15 01:25:54;;;;;;;17.80;11.47;;;;;;;;;;5024469;28;20193;-54
2024/01/15 01:28:20;;;;;;;18.03;12.10;;;;;;;;;;5015199;28;20495;-54
2024/01/15 01:30:46;;;;;;;12.47;10.27;;;;;;;;;;5037664;28;20185;-54
2024/01/15 01:33:12;;;;;;;17.53;11.97;;;;;;;;;;5024061;28;20174;-54
2024/01/15 01:35:38;;;;;;;15.80;11.57;;;;;;;;;;5020558;28;20627;-54
2024/01/15 01:38:04;;;;;;;15.13;11.43;;;;;;;;;;5019128;28;20548;-54
2024/01/15 01:40:30;;;;;;;16.13;10.90;;;;;;;;;;5013742;28;20256;-54
2024/01/15 01:42:56;;;;;;;15.17;11.07;;;;;;;;;;5024615;28;20259;-54
2024/01/15 01:45:22;;;;;;;16.37;11.50;;;;;;;;;;5031470;28;20265;-54
2024/01/15 01:47:49;;;;;;;17.63;12.27;;;;;;;;;;5022346;28;20630;-54
2024/01/15 01:50:15;;;;;;;14.23;10.67;;;;;;;;;;5028720;28;20912;-54
2024/01/15 01:52:41;;;;;;;16.10;11.77;;;;;;;;;;5019177;28;20408;-54
2024/01/15 01:55:08;;;;;;;16.43;11.30;;;;;;;;;;5031339;28;20861;-54
2024/01/15 01:57:34;;;;;;;12.77;9.87;;;;;;;;;;5024602;28;20321;-54
2024/01/15 02:00:02;;;;;;;13.90;9.83;;;;;;;;;;5025491;28;20225;-54
2024/01/15 02:02:28;;;;;;;17.03;11.00;;;;;;;;;;5019412;28;20175;-54
2024/01/15 02:04:54;;;;;;;13.40;10.17;;;;;;;;;;5023432;28;20205;-54
2024/01/15 02:07:20;;;;;;;15.97;11.20;;;;;;;;;;5013413;28;20408;-54
2024/01/15 02:09:46;;;;;;;13.70;9.23;;;;;;;;;;5017064;28;20265;-54
2024/01/15 02:12:13;;;;;;;12.53;8.97;;;;;;;;;;5021506;28;20600;-54
2024/01/15 02:14:39;;;;;;;16.23;11.07;;;;;;;;;;5026121;28;20189;-54
2024/01/15 02:17:06;;;;;;;16.33;10.43;;;;;;;;;;5020759;28;20595;-54
2024/01/15 02:19:32;;;;;;;16.53;10.17;;;;;;;;;;5012070;28;20737;-54
2024/01/15 02:21:58;;;;;;;16.10;9.50;;;;;;;;;;5012389;28;20392;-51
2024/01/15 02:24:24;;;;;;;14.27;9.97;;;;;;;;;;5011860;28;20173;-54
2024/01/15 02:26:50;;;;;;;13.00;9.00;;;;;;;;;;5014418;28;20178;-53
2024/01/15 02:29:16;;;;;;;12.57;9.47;;;;;;;;;;5023034;28;20177;-54
2024/01/15 02:31:42;;;;;;;12.00;8.20;;;;;;;;;;5017470;28;20174;-54
2024/01/15 02:34:08;;;;;;;15.83;9.63;;;;;;;;;;5013456;28;20201;-54
2024/01/15 02:36:34;;;;;;;14.47;9.60;;;;;;;;;;5011669;28;20182;-54
2024/01/15 02:39:00;;;;;;;12.57;9.53;;;;;;;;;;5018871;28;20738;-53
2024/01/15 02:41:26;;;;;;;12.77;9.23;;;;;;;;;;5028540;28;20189;-54
2024/01/15 02:43:52;;;;;;;14.90;8.70;;;;;;;;;;5020450;28;20357;-54
2024/01/15 02:46:18;;;;;;;12.13;8.80;;;;;;;;;;5021981;28;20806;-54
2024/01/15 02:48:44;;;;;;;13.00;8.40;;;;;;;;;;5011544;28;20225;-53
2024/01/15 02:51:10;;;;;;;12.63;8.30;;;;;;;;;;5020845;28;20260;-54
2024/01/15 02:53:37;;;;;;;10.63;7.90;;;;;;;;;;5011477;28;20326;-54
2024/01/15 02:56:03;;;;;;;11.20;8.30;;;;;;;;;;5014605;28;20232;-54
2024/01/15 02:58:29;;;;;;;11.33;7.47;;;;;;;;;;5022207;28;20241;-53
2024/01/15 03:00:55;;;;;;;11.07;8.70;;;;;;;;;;5024369;28;20214;-53
2024/01/15 03:03:21;;;;;;;11.10;8.33;;;;;;;;;;5022678;28;20709;-53
2024/01/15 03:05:47;;;;;;;12.70;8.37;;;;;;;;;;5027853;28;20178;-54
2024/01/15 03:08:13;;;;;;;9.33;7.00;;;;;;;;;;5013573;28;20186;-54
2024/01/15 03:10:39;;;;;;;11.40;7.47;;;;;;;;;;5011012;28;20405;-54
2024/01/15 03:13:05;;;;;;;10.47;6.70;;;;;;;;;;5012683;28;20576;-54
2024/01/15 03:15:31;;;;;;;9.77;7.40;;;;;;;;;;5019071;28;20193;-54
2024/01/15 03:17:57;;;;;;;11.93;7.30;;;;;;;;;;5018666;28;20173;-54
2024/01/15 03:20:23;;;;;;;8.37;6.93;;;;;;;;;;5017754;28;20614;-54
2024/01/15 03:22:50;;;;;;;8.43;6.83;;;;;;;;;;5013742;28;20200;-53
2024/01/15 03:25:16;;;;;;;11.50;7.40;;;;;;;;;;5012381;28;20508;-53
2024/01/15 03:27:42;;;;;;;13.47;6.67;;;;;;;;;;5017089;28;20265;-54
2024/01/15 03:30:08;;;;;;;9.30;6.97;;;;;;;;;;5018956;28;20175;-53
2024/01/15 03:32:34;;;;;;;13.73;7.17;;;;;;;;;;5012791;28;20693;-54
2024/01/15 03:35:00;;;;;;;7.40;6.43;;;;;;;;;;5016061;28;20202;-54
2024/01/15 03:37:26;;;;;;;11.43;7.57;;;;;;;;;;5015810;28;20173;-54
2024/01/15 03:39:52;;;;;;;10.67;7.30;;;;;;;;;;5019548;28;20197;-54
2024/01/15 03:42:18;;;;;;;11.20;7.40;;;;;;;;;;5019104;28;20198;-54
2024/01/15 03:44:44;;;;;;;12.67;7.77;;;;;;;;;;5012577;28;20734;-54
2024/01/15 03:47:10;;;;;;;10.97;7.83;;;;;;;;;;5017524;28;20273;-54
2024/01/15 03:49:36;;;;;;;13.00;8.10;;;;;;;;;;5013169;28;20540;-54
2024/01/15 03:52:02;;;;;;;9.37;7.73;;;;;;;;;;5009863;28;20232;-54
2024/01/15 03:54:28;;;;;;;10.67;7.73;;;;;;;;;;5013147;28;20631;-54
2024/01/15 03:56:54;;;;;;;9.97;8.20;;;;;;;;;;5019422;28;20173;-54
2024/01/15 03:59:20;;;;;;;10.53;8.73;;;;;;;;;;5017722;28;20635;-54
2024/01/15 04:01:53;;;;;;;10.57;8.33;;;;;;;;;;5028587;28;20253;-54
2024/01/15 04:04:19;;;;;;;8.73;7.77;;;;;;;;;;5027072;28;20177;-54
2024/01/15 04:06:45;;;;;;;11.00;7.87;;;;;;;;;;5010627;28;20229;-54
2024/01/15 04:09:13;;;;;;;9.87;7.43;;;;;;;;;;5024654;28;20192;-54
2024/01/15 04:11:40;;;;;;;11.93;8.80;;;;;;;;;;5020969;28;20178;-54
2024/01/15 04:14:06;;;;;;;9.83;7.70;;;;;;;;;;5023280;28;20270;-54
2024/01/15 04:16:32;;;;;;;13.60;7.97;;;;;;;;;;5015091;28;20262;-54
2024/01/15 04:18:58;;;;;;;11.63;7.60;;;;;;;;;;4996614;28;20684;-54
2024/01/15 04:21:24;;;;;;;10.50;7.47;;;;;;;;;;5027500;28;20181;-54
2024/01/15 04:23:50;;;;;;;10.13;7.80;;;;;;;;;;5027654;28;20213;-54
2024/01/15 04:26:16;;;;;;;9.00;7.53;;;;;;;;;;5023972;28;20166;-54
2024/01/15 04:28:42;;;;;;;9.23;7.23;;;;;;;;;;5021598;28;20193;-54
2024/01/15 04:31:08;;;;;;;9.57;7.23;;;;;;;;;;5018945;28;20190;-54
2024/01/15 04:33:34;;;;;;;10.07;7.57;;;;;;;;;;5017575;28;20206;-54
2024/01/15 04:36:06;;;;;;;10.57;7.63;;;;;;;;;;5015228;28;20637;-54
2024/01/15 04:38:33;;;;;;;8.60;6.87;;;;;;;;;;5027158;28;20223;-54
2024/01/15 04:40:59;;;;;;;10.53;7.07;;;;;;;;;;5021060;28;20637;-54
2024/01/15 04:43:25;;;;;;;9.13;7.13;;;;;;;;;;5023989;28;20657;-54
2024/01/15 04:45:51;;;;;;;8.33;6.90;;;;;;;;;;5018449;28;20232;-57
2024/01/15 04:48:17;;;;;;;9.03;7.60;;;;;;;;;;5025255;28;20194;-57
2024/01/15 04:50:43;;;;;;;9.60;7.30;;;;;;;;;;5030962;28;20198;-56
2024/01/15 04:53:09;;;;;;;10.13;7.97;;;;;;;;;;5031798;28;20267;-56
2024/01/15 04:55:35;;;;;;;10.87;7.97;;;;;;;;;;5023566;28;20600;-56
2024/01/15 04:58:01;;;;;;;11.73;7.43;;;;;;;;;;5014592;28;20182;-57
2024/01/15 05:00:27;;;;;;;9.40;7.63;;;;;;;;;;5014977;28;20159;-56
2024/01/15 05:02:53;;;;;;;9.70;7.73;;;;;;;;;;5012589;28;20843;-56
2024/01/15 05:05:19;;;;;;;10.40;7.37;;;;;;;;;;5015868;28;20183;-57
2024/01/15 05:07:45;;;;;;;12.60;6.97;;;;;;;;;;5019043;28;20178;-56
2024/01/15 05:10:11;;;;;;;7.73;6.97;;;;;;;;;;5020215;28;20661;-56
2024/01/15 05:12:37;;;;;;;9.00;6.70;;;;;;;;;;5021799;28;20178;-57
2024/01/15 05:15:04;;;;;;;9.57;7.03;;;;;;;;;;5022514;28;20186;-56
2024/01/15 05:17:30;;;;;;;10.50;7.13;;;;;;;;;;5015836;28;20273;-57
2024/01/15 05:19:56;;;;;;;8.37;6.87;;;;;;;;;;5020594;28;20677;-56
2024/01/15 05:22:24;;;;;;;7.87;5.70;;;;;;;;;;5019696;28;20181;-55
2024/01/15 05:24:50;;;;;;;11.33;6.77;;;;;;;;;;5031987;28;20224;-56
2024/01/15 05:27:16;;;;;;;10.60;6.87;;;;;;;;;;5026808;28;20174;-56
2024/01/15 05:29:42;;;;;;;7.63;5.73;;;;;;;;;;5027534;28;20536;-55
2024/01/15 05:32:08;;;;;;;9.77;6.90;;;;;;;;;;5020689;28;20626;-55
2024/01/15 05:34:34;;;;;;;7.60;6.40;;;;;;;;;;5015156;28;20252;-56
2024/01/15 05:37:00;;;;;;;7.53;6.10;;;;;;;;;;5012235;28;20181;-56
2024/01/15 05:39:26;;;;;;;7.43;6.17;;;;;;;;;;5016459;28;20206;-56
2024/01/15 05:41:52;;;;;;;8.47;6.47;;;;;;;;;;5029735;28;20201;-56
2024/01/15 05:44:18;;;;;;;8.07;6.20;;;;;;;;;;5026434;28;20712;-56
2024/01/15 05:46:44;;;;;;;10.13;6.60;;;;;;;;;;5019757;28;20251;-56
2024/01/15 05:49:10;;;;;;;10.30;6.10;;;;;;;;;;5018675;28;20190;-57
2024/01/15 05:51:37;;;;;;;8.73;7.17;;;;;;;;;;5026951;28;20235;-56
2024/01/15 05:54:03;;;;;;;7.17;6.20;;;;;;;;;;5026835;28;20193;-54
2024/01/15 05:56:29;;;;;;;8.27;6.73;;;;;;;;;;5024905;28;20855;-53
2024/01/15 05:58:55;;;;;;;12.67;7.30;;;;;;;;;;5021578;28;20263;-51
2024/01/15 06:01:21;;;;;;;9.13;6.80;;;;;;;;;;5025944;28;20255;-51
2024/01/15 06:03:47;;;;;;;8.77;6.67;;;;;;;;;;5025578;28;20216;-52
2024/01/15 06:06:13;;;;;;;8.80;6.83;;;;;;;;;;5025224;28;20589;-55
2024/01/15 06:08:39;;;;;;;9.53;6.43;;;;;;;;;;5014359;28;20187;-54
2024/01/15 06:11:05;;;;;;;7.20;6.20;;;;;;;;;;5036490;28;20185;-54
2024/01/15 06:13:31;;;;;;;9.17;5.90;;;;;;;;;;5017187;28;20189;-54
2024/01/15 06:15:57;;;;;;;7.90;5.60;;;;;;;;;;5027677;28;20166;-54
2024/01/15 06:18:23;;;;;;;8.67;5.67;;;;;;;;;;5023369;28;20202;-54
2024/01/15 06:20:49;;;;;;;8.13;5.27;;;;;;;;;;5025711;28;20166;-54
2024/01/15 06:23:15;;;;;;;7.50;5.63;;;;;;;;;;5016386;28;20171;-54
2024/01/15 06:25:41;;;;;;;8.50;5.20;;;;;;;;;;5022289;28;20239;-54
2024/01/15 06:28:07;;;;;;;5.80;4.97;;;;;;;;;;5019174;28;20178;-54
2024/01/15 06:30:33;;;;;;;6.00;5.20;;;;;;;;;;5020009;28;20197;-53
2024/01/15 06:32:59;;;;;;;6.15;4.95;;;;;;;;;;5026026;28;20409;-54
2024/01/15 06:35:25;;;;;;;7.13;5.40;;;;;;;;;;5017716;28;20174;-54
2024/01/15 06:37:51;;;;;;;7.37;4.77;;;;;;;;;;5020084;28;20547;-53
2024/01/15 06:40:17;;;;;;;6.27;4.53;;;;;;;;;;5012821;28;20181;-54
2024/01/15 06:42:43;;;;;;;6.30;3.87;;;;;;;;;;5016823;28;20197;-54
2024/01/15 06:45:09;;;;;;;5.87;3.97;;;;;;;;;;5021117;28;20588;-53
2024/01/15 06:47:35;;;;;;;5.03;3.63;;;;;;;;;;5025149;28;20174;-54
2024/01/15 06:50:01;;;;;;;8.53;4.37;;;;;;;;;;5021631;28;20190;-54
2024/01/15 06:52:27;;;;;;;;;;;;;;;;;;5018651;28;20091;-54
2024/01/15 06:54:54;;;;;;;4.83;3.30;;;;;;;;;;5019168;28;20454;-53
2024/01/15 06:57:20;;;;;;;7.37;3.40;;;;;;;;;;5029564;28;20638;-53
2024/01/15 06:59:46;;;;;;;7.50;3.70;;;;;;;;;;5021757;28;20998;-55
2024/01/15 07:02:12;;;;;;;6.10;3.60;;;;;;;;;;5013884;28;21740;-54
2024/01/15 07:04:38;;;;;;;4.20;3.00;;;;;;;;;;5018311;28;20260;-55
2024/01/15 07:07:04;;;;;;;4.37;3.60;;;;;;;;;;5019542;28;20518;-54
2024/01/15 07:09:30;;;;;;;4.80;2.90;;;;;;;;;;5022123;28;20615;-54
2024/01/15 07:11:58;;;;;;;5.87;3.50;;;;;;;;;;5019715;28;20171;-54
2024/01/15 07:14:24;;;;;;;3.97;2.97;;;;;;;;;;5020058;28;20174;-54
2024/01/15 07:16:50;;;;;;;2.87;2.60;;;;;;;;;;5028743;28;20178;-55
2024/01/15 07:19:16;;;;;;;3.33;3.03;;;;;;;;;;5012828;28;20740;-54
2024/01/15 07:21:42;;;;;;;5.37;3.13;;;;;;;;;;5012435;28;20214;-54
2024/01/15 07:24:10;;;;;;;3.03;2.73;;;;;;;;;;5026441;28;20178;-54
2024/01/15 07:26:36;;;;;;;4.37;3.67;;;;;;;;;;5014728;28;20178;-54
2024/01/15 07:29:03;;;;;;;5.70;3.43;;;;;;;;;;5018851;28;20179;-54
2024/01/15 07:31:29;;;;;;;4.50;3.40;;;;;;;;;;5022421;28;20213;-54
2024/01/15 07:33:55;;;;;;;6.37;4.60;;;;;;;;;;5016149;28;20193;-54
2024/01/15 07:36:21;;;;;;;6.20;3.70;;;;;;;;;;5020036;28;20251;-54
2024/01/15 07:38:47;;;;;;;5.57;4.63;;;;;;;;;;5013441;28;20241;-54
2024/01/15 07:41:14;;;;;;;6.10;4.93;;;;;;;;;;5018470;28;20625;-54
2024/01/15 07:43:40;;;;;;;5.83;4.70;;;;;;;;;;5019227;28;20190;-54
2024/01/15 07:46:07;;;;;;;7.27;5.63;;;;;;;;;;5020950;28;20224;-54
2024/01/15 07:48:34;;;;;;;5.40;4.90;;;;;;;;;;5019247;28;20187;-54
2024/01/15 07:51:00;;;;;;;8.63;6.00;;;;;;;;;;5021509;28;20590;-54
2024/01/15 07:53:26;;;;;;;8.43;5.97;;;;;;;;;;5021860;28;20728;-54
2024/01/15 07:55:52;;;;;;;7.63;6.20;;;;;;;;;;5014595;28;20174;-54
2024/01/15 07:58:18;;;;;;;8.50;6.17;;;;;;;;;;5023081;28;20304;-54
2024/01/15 08:00:44;;;;;;;6.53;5.80;;;;;;;;;;5019030;28;20662;-54
2024/01/15 08:03:10;;;;;;;6.50;5.80;;;;;;;;;;5017315;28;20182;-54
2024/01/15 08:05:36;;;;;;;6.90;6.03;;;;;;;;;;5022749;28;20550;-55
2024/01/15 08:08:02;;;;;;;6.07;5.47;;;;;;;;;;5019716;28;20185;-54
2024/01/15 08:10:28;;;;;;;6.70;5.43;;;;;;;;;;5018278;28;20182;-54
2024/01/15 08:12:55;;;;;;;9.50;5.95;;;;;;;;;;5022178;28;20264;-54
2024/01/15 08:15:21;;;;;;;5.83;5.23;;;;;;;;;;5017991;28;20185;-54
2024/01/15 08:17:47;;;;;;;6.00;5.37;;;;;;;;;;5016447;28;20235;-54
2024/01/15 08:20:13;;;;;;;7.60;5.10;;;;;;;;;;5013603;28;20206;-55
2024/01/15 08:22:39;;;;;;;8.10;5.63;;;;;;;;;;5023613;28;20178;-54
2024/01/15 08:25:05;;;;;;;7.60;6.07;;;;;;;;;;5025378;28;20189;-54
2024/01/15 08:27:31;;;;;;;6.00;5.40;;;;;;;;;;5020859;28;20209;-54
2024/01/15 08:29:57;;;;;;;6.53;5.83;;;;;;;;;;5029488;28;20185;-54
2024/01/15 08:32:23;;;;;;;5.97;5.40;;;;;;;;;;5024832;28;20181;-54
2024/01/15 08:34:52;;;;;;;5.70;5.20;;;;;;;;;;5040369;28;20188;-54
2024/01/15 08:37:18;;;;;;;5.47;4.97;;;;;;;;;;5030564;28;20182;-54
2024/01/15 08:39:44;;;;;;;5.93;5.43;;;;;;;;;;5017498;28;20206;-54
2024/01/15 08:42:11;;;;;;;6.07;5.47;;;;;;;;;;5022802;28;20197;-53
2024/01/15 08:44:39;;;;;;;5.80;5.10;;;;;;;;;;5026899;28;20601;-54
2024/01/15 08:47:05;;;;;;;8.77;5.50;;;;;;;;;;5019933;28;20174;-54
2024/01/15 08:49:31;;;;;;;6.93;5.57;;;;;;;;;;5013686;28;20186;-54
2024/01/15 08:51:58;;;;;;;5.10;4.70;;;;;;;;;;5024388;28;20372;-54
2024/01/15 08:54:24;;;;;;;6.13;5.27;;;;;;;;;;5022490;28;20681;-54
2024/01/15 08:56:50;;;;;;;5.93;5.00;;;;;;;;;;5023936;28;20314;-54
2024/01/15 08:59:16;;;;;;;5.37;4.80;;;;;;;;;;5018971;28;20305;-54
2024/01/15 09:01:42;;;;;;;5.17;4.70;;;;;;;;;;5028185;28;20911;-54
2024/01/15 09:04:08;;;;;;;5.20;4.37;;;;;;;;;;5018260;28;20325;-54
2024/01/15 09:06:34;;;;;;;5.93;5.23;;;;;;;;;;5028791;28;20181;-54
2024/01/15 09:09:00;;;;;;;4.77;3.97;;;;;;;;;;5025528;28;20719;-54
2024/01/15 09:11:26;;;;;;;4.77;4.00;;;;;;;;;;5023578;28;20174;-54
2024/01/15 09:13:52;;;;;;;4.53;4.13;;;;;;;;;;5025503;28;20922;-54
2024/01/15 09:16:19;;;;;;;4.13;3.80;;;;;;;;;;5018621;28;20221;-54
2024/01/15 09:18:46;;;;;;;4.33;3.93;;;;;;;;;;5017142;28;20214;-53
2024/01/15 09:21:12;;;;;;;5.00;4.27;;;;;;;;;;5016824;28;20214;-54
2024/01/15 09:23:38;;;;;;;3.93;3.50;;;;;;;;;;5021565;28;20818;-54
2024/01/15 09:26:04;;;;;;;3.63;3.33;;;;;;;;;;5019263;28;20241;-54
2024/01/15 09:28:31;;;;;;;4.77;3.67;;;;;;;;;;5016339;28;20198;-54
2024/01/15 09:30:57;;;;;;;4.33;3.93;;;;;;;;;;5016824;28;20182;-53
2024/01/15 09:33:23;;;;;;;3.50;3.17;;;;;;;;;;5017817;28;20225;-54
2024/01/15 09:35:49;;;;;;;3.30;3.00;;;;;;;;;;5016311;28;20696;-53
2024/01/15 09:38:15;;;;;;;3.60;3.30;;;;;;;;;;5015578;28;20193;-52
2024/01/15 09:40:43;;;;;;;3.47;2.90;;;;;;;;;;5019268;28;20182;-52
2024/01/15 09:43:10;;;;;;;2.80;2.60;;;;;;;;;;5023630;28;20209;-53
2024/01/15 09:45:36;;;;;;;2.97;2.73;;;;;;;;;;4983857;28;1086616;-52
2024/01/15 09:48:02;;;;;;;3.03;2.73;;;;;;;;;;5020277;28;20202;-53
2024/01/15 09:50:28;;;;;;;3.03;2.50;;;;;;;;;;5019469;28;20657;-53
2024/01/15 09:52:57;;;;;;;2.70;2.50;;;;;;;;;;5020095;28;20634;-53
2024/01/15 09:55:23;;;;;;;6.70;2.53;;;;;;;;;;5017856;28;20676;-54
2024/01/15 09:57:50;;;;;;;3.83;2.60;;;;;;;;;;5018164;28;20174;-53
2024/01/15 10:00:19;;;;;;;3.17;2.83;;;;;;;;;;5016738;28;20237;-53
2024/01/15 10:02:45;;;;;;;3.00;2.80;;;;;;;;;;5018199;28;20178;-52
2024/01/15 10:05:12;;;;;;;2.53;2.33;;;;;;;;;;5020769;28;20192;-52
2024/01/15 10:07:39;;;;;;;2.87;2.57;;;;;;;;;;5014227;28;20178;-52
2024/01/15 10:10:07;;;;;;;2.60;2.40;;;;;;;;;;5015709;28;20193;-53
2024/01/15 10:12:33;;;;;;;3.10;2.80;;;;;;;;;;5021016;28;20185;-53
2024/01/15 10:14:59;;;;;;;3.43;2.47;;;;;;;;;;5023851;28;20717;-53
2024/01/15 10:17:27;;;;;;;2.53;2.33;;;;;;;;;;5029600;28;20185;-56
2024/01/15 10:19:53;;;;;;;2.57;2.37;;;;;;;;;;5018102;28;20211;-54
2024/01/15 10:22:20;;;;;;;3.03;2.60;;;;;;;;;;5017114;28;20736;-54
2024/01/15 10:24:49;;;;;;;2.70;2.50;;;;;;;;;;5020581;28;20175;-54
2024/01/15 10:27:15;;;;;;;3.20;2.37;;;;;;;;;;5023376;28;20185;-54
2024/01/15 10:29:42;;;;;;;2.73;2.50;;;;;;;;;;5030381;28;20190;-54
2024/01/15 10:32:08;;;;;;;3.17;2.87;;;;;;;;;;5026744;28;20201;-54
2024/01/15 10:34:38;;;;;;;3.23;2.60;;;;;;;;;;5017753;28;20204;-53
2024/01/15 10:37:05;;;;;;;6.90;3.03;;;;;;;;;;5018644;28;20226;-56
2024/01/15 10:39:31;;;;;;;4.10;2.90;;;;;;;;;;5017413;28;20194;-56
2024/01/15 10:41:57;;;;;;;3.93;3.23;;;;;;;;;;5024097;28;20256;-55
2024/01/15 10:44:23;;;;;;;9.53;3.00;;;;;;;;;;5024151;28;20716;-56
2024/01/15 10:46:49;;;;;;;3.30;3.00;;;;;;;;;;5021832;28;20189;-54
2024/01/15 10:49:16;;;;;;;4.10;3.17;;;;;;;;;;5021725;28;20642;-55
2024/01/15 10:51:43;;;;;;;4.50;2.50;;;;;;;;;;5024314;28;20209;-56
2024/01/15 10:54:13;;;;;;;3.30;3.00;;;;;;;;;;5027396;28;20170;-56
2024/01/15 10:56:39;;;;;;;2.97;2.50;;;;;;;;;;5017653;28;20190;-57
2024/01/15 10:59:07;;;;;;;4.10;3.00;;;;;;;;;;5019489;28;20264;-55
2024/01/15 11:01:34;;;;;;;3.50;3.20;;;;;;;;;;5013819;28;20175;-55
2024/01/15 11:04:00;;;;;;;2.97;2.60;;;;;;;;;;5019141;28;20187;-56
2024/01/15 11:06:28;;;;;;;3.47;2.57;;;;;;;;;;5022326;28;20183;-56
2024/01/15 11:08:55;;;;;;;3.20;2.90;;;;;;;;;;5017045;28;20213;-56
2024/01/15 11:11:22;;;;;;;3.63;2.67;;;;;;;;;;5029260;28;20197;-56
2024/01/15 11:13:51;;;;;;;3.03;2.67;;;;;;;;;;5023132;28;20598;-56
2024/01/15 11:16:17;;;;;;;5.73;3.27;;;;;;;;;;5023225;28;20195;-56
2024/01/15 11:18:58;;;;;;;3.07;2.73;;;;;;;;;;5015664;28;20198;-56
2024/01/15 11:21:29;;;;;;;3.40;3.00;;;;;;;;;;5016726;28;20178;-56
2024/01/15 11:23:58;;;;;;;3.67;3.20;;;;;;;;;;5016813;28;20175;-56
2024/01/15 11:26:35;;;;;;;2.97;2.60;;;;;;;;;;5012060;28;20186;-56
2024/01/15 11:29:21;;;;;;;3.30;2.90;;;;;;;;;;5015458;28;20703;-56
2024/01/15 11:31:47;;;;;;;5.27;3.00;;;;;;;;;;5020792;28;20238;-56
2024/01/15 11:34:13;;;;;;;4.57;3.23;;;;;;;;;;5025762;28;20193;-56
2024/01/15 11:36:49;;;;;;;3.10;2.50;;;;;;;;;;5018694;28;20709;-56
2024/01/15 11:39:27;;;;;;;4.40;2.87;;;;;;;;;;5025315;28;20202;-56
2024/01/15 11:41:55;;;;;;;3.93;2.70;;;;;;;;;;5027691;28;20623;-56
2024/01/15 11:44:21;;;;;;;3.10;2.80;;;;;;;;;;5018770;28;20229;-56
2024/01/15 11:46:57;;;;;;;3.73;2.63;;;;;;;;;;5032791;28;20176;-56
2024/01/15 11:49:44;;;;;;;4.20;2.83;;;;;;;;;;5024245;28;20209;-57
2024/01/15 11:55:16;;;;;;;2.40;2.10;;;;;;;;;;5020287;28;20255;-57
2024/01/15 11:57:45;;;;;;;3.13;2.67;;;;;;;;;;5021034;28;20194;-57
2024/01/15 12:00:12;;;;;;;3.13;2.60;;;;;;;;;;5022647;28;20244;-57
2024/01/15 12:02:42;;;;;;;6.57;2.77;;;;;;;;;;5018989;28;20221;-56
2024/01/15 12:05:12;;;;;;;2.77;2.00;;;;;;;;;;5019706;28;20570;-57
2024/01/15 12:07:39;;;;;;;2.63;2.20;;;;;;;;;;5028904;28;20679;-57
2024/01/15 12:10:09;;;;;;;2.70;2.37;;;;;;;;;;5016405;28;20660;-57
2024/01/15 12:12:53;;;;;;;4.07;2.17;;;;;;;;;;5018624;28;20500;-56
2024/01/15 12:15:19;;;;;;;4.37;2.20;;;;;;;;;;5024015;28;20181;-57
2024/01/15 12:17:47;;;;;;;2.87;2.03;;;;;;;;;;5015534;28;20256;-56
2024/01/15 12:20:13;;;;;;;1.70;1.60;;;;;;;;;;5024862;28;20680;-56
2024/01/15 12:22:39;;;;;;;2.83;1.93;;;;;;;;;;5013331;28;20637;-56
2024/01/15 12:25:05;;;;;;;2.80;2.10;;;;;;;;;;5023074;28;20186;-57
2024/01/15 12:27:31;;;;;;;1.97;1.87;;;;;;;;;;5021684;28;20166;-57
2024/01/15 12:29:58;;;;;;;3.13;2.03;;;;;;;;;;5018914;28;20214;-57
2024/01/15 12:32:25;;;;;;;3.50;1.90;;;;;;;;;;5017189;28;20239;-57
2024/01/15 12:34:51;;;;;;;2.70;2.17;;;;;;;;;;5021894;28;20598;-57
2024/01/15 12:37:20;;;;;;;1.90;1.50;;;;;;;;;;5009987;28;20212;-56
2024/01/15 12:39:47;;;;;;;4.07;2.03;;;;;;;;;;5013705;28;20205;-57
2024/01/15 12:42:16;;;;;;;2.60;1.67;;;;;;;;;;5022424;28;21965;-56
2024/01/15 12:44:42;;;;;;;3.10;1.87;;;;;;;;;;5021123;28;20652;-57
2024/01/15 12:47:08;;;;;;;4.30;2.27;;;;;;;;;;5020134;28;20656;-56
2024/01/15 12:49:36;;;;;;;4.10;2.10;;;;;;;;;;5014506;28;20209;-56
2024/01/15 12:52:02;;;;;;;4.10;2.40;;;;;;;;;;5017545;28;20243;-56
2024/01/15 12:54:28;;;;;;;2.70;1.97;;;;;;;;;;5024215;28;20187;-57
2024/01/15 12:56:54;;;;;;;3.00;1.90;;;;;;;;;;5021871;28;20188;-57
2024/01/15 12:59:20;;;;;;;2.40;1.87;;;;;;;;;;5018360;28;20206;-57
2024/01/15 13:01:46;;;;;;;2.10;1.80;;;;;;;;;;5015787;28;20191;-57
2024/01/15 13:04:21;;;;;;;4.10;2.17;;;;;;;;;;5013567;28;20178;-57
2024/01/15 13:06:47;;;;;;;3.57;2.00;;;;;;;;;;5020673;28;20188;-56
2024/01/15 13:09:14;;;;;;;4.80;2.30;;;;;;;;;;5022119;28;20185;-57
2024/01/15 13:11:40;;;;;;;4.20;2.13;;;;;;;;;;5020575;28;20313;-57
2024/01/15 13:14:06;;;;;;;3.07;2.23;;;;;;;;;;5022809;28;20186;-57
2024/01/15 13:16:32;;;;;;;3.40;2.13;;;;;;;;;;5017639;28;20204;-56
2024/01/15 13:18:58;;;;;;;2.20;1.80;;;;;;;;;;5028687;28;20232;-57
2024/01/15 13:21:24;;;;;;;3.97;2.30;;;;;;;;;;5026543;28;20186;-57
2024/01/15 13:23:51;;;;;;;4.28;2.80;;;;;;;;;;5018374;28;20399;-57
2024/01/15 13:26:19;;;;;;;2.77;2.33;;;;;;;;;;5029842;28;20191;-57
2024/01/15 13:28:45;;;;;;;4.40;2.70;;;;;;;;;;5033971;28;20252;-57
2024/01/15 13:31:11;;;;;;;2.77;2.30;;;;;;;;;;5028985;28;20181;-57
2024/01/15 13:33:37;;;;;;;3.13;2.70;;;;;;;;;;5021164;28;20649;-57
2024/01/15 13:36:03;;;;;;;3.33;3.03;;;;;;;;;;5024804;28;20188;-57
2024/01/15 13:38:35;;;;;;;4.23;2.50;;;;;;;;;;5022324;28;20225;-56
2024/01/15 13:41:01;;;;;;;4.20;3.10;;;;;;;;;;5023417;28;20201;-56
2024/01/15 13:43:27;;;;;;;4.87;2.57;;;;;;;;;;5016439;28;20232;-57
2024/01/15 13:45:54;;;;;;;2.97;2.57;;;;;;;;;;5018486;28;20225;-57
2024/01/15 13:48:20;;;;;;;6.00;3.00;;;;;;;;;;5026529;28;20670;-57
2024/01/15 13:50:46;;;;;;;3.13;2.50;;;;;;;;;;5022089;28;20207;-57
2024/01/15 13:53:12;;;;;;;2.73;2.47;;;;;;;;;;5019885;28;20197;-57
2024/01/15 13:55:39;;;;;;;3.60;2.20;;;;;;;;;;5026039;28;20186;-57
2024/01/15 13:58:05;;;;;;;2.73;2.27;;;;;;;;;;5020698;28;20178;-57
2024/01/15 14:00:32;;;;;;;2.13;2.00;;;;;;;;;;5021092;28;20579;-57
2024/01/15 14:02:58;;;;;;;2.63;2.30;;;;;;;;;;5021533;28;20581;-57
2024/01/15 14:05:24;;;;;;;2.27;2.07;;;;;;;;;;5030280;28;20183;-57
2024/01/15 14:07:50;;;;;;;2.47;1.93;;;;;;;;;;5024492;28;20175;-57
2024/01/15 14:10:16;;;;;;;3.10;2.07;;;;;;;;;;5015124;28;20700;-57
2024/01/15 14:12:42;;;;;;;3.40;1.90;;;;;;;;;;5024026;28;20194;-55
2024/01/15 14:15:09;;;;;;;3.20;2.20;;;;;;;;;;5018897;28;20183;-56
2024/01/15 14:17:35;;;;;;;2.80;2.27;;;;;;;;;;5026396;28;20212;-57
2024/01/15 14:20:01;;;;;;;2.27;1.60;;;;;;;;;;5018593;28;20719;-57
2024/01/15 14:22:27;;;;;;;2.03;1.50;;;;;;;;;;5016267;28;20244;-57
2024/01/15 14:24:53;;;;;;;1.57;1.43;;;;;;;;;;5014917;28;20182;-57
2024/01/15 14:27:19;;;;;;;1.80;1.57;;;;;;;;;;5017790;28;20178;-56
2024/01/15 14:29:46;;;;;;;3.17;1.70;;;;;;;;;;5014980;28;20244;-56
2024/01/15 14:32:12;;;;;;;2.17;1.70;;;;;;;;;;5015996;28;20233;-56
2024/01/15 14:34:38;;;;;;;7.73;1.93;;;;;;;;;;5025856;28;20205;-57
2024/01/15 14:37:04;;;;;;;3.20;1.30;;;;;;;;;;5029366;28;20173;-56